Language: 


Des rapports , des résumés tant et plus, au choix de chacun....


Données Historiques de Météogheer
Journalier Rapport pour Décembre 14, 2017 Unitée:  Impériale    Métrique   Les deux
Suivant Jour »
Journalier Hebdomadaire Mensuel Annuel Sur mesure
  Max: Min: Moyenne:
Température: 42.3 °F 32 °F 39.2 °F
Point de rosée: 42.8 °F 32 °F 37.6 °F
Humidité: 98% 0% 90%
Vent: 32.7mph 0mph 8.6mph
Rafales: 34.7mph - -
Vent- - WSW
Pression: 29.4 in 0 in -
Pluie: 0.3 in    
Historical Graphs
 
 
Données tabulaires pour Décembre 14, 2017
Heure Température Point de rosée Pression Vent Vent Rafales Humidité Pluie Taux (Horaire) Conditions
00:06 41.2 °F 39.2 °F 29.2 in WSW 13.6 mph 16.8 mph 94% 0 in
00:11 41.5 °F 41 °F 29.2 in WSW 32.7 mph 34.7 mph 95% 0 in
00:16 41.7 °F 41 °F 29.2 in WSW 23.7 mph 34.7 mph 97% 0.04 in
00:21 41.7 °F 41 °F 29.2 in WSW 15.4 mph 27.3 mph 97% 0.04 in
00:26 41.5 °F 42.8 °F 29.2 in WSW 13.2 mph 23 mph 98% 0.05 in
00:31 41.5 °F 42.8 °F 29.2 in WSW 12.5 mph 20.1 mph 98% 0.05 in
00:36 41.4 °F 41 °F 29.2 in WSW 20.1 mph 20.8 mph 98% 0.05 in
00:41 41.4 °F 41 °F 29.2 in SW 14.5 mph 23.7 mph 97% 0.05 in
00:46 41.2 °F 41 °F 29.2 in SW 15.4 mph 23.7 mph 97% 0.05 in
00:51 41.2 °F 41 °F 29.2 in SW 14.1 mph 18.8 mph 97% 0.06 in
00:56 41.2 °F 41 °F 29.2 in WSW 15.2 mph 17.4 mph 97% 0.06 in
01:01 41.4 °F 41 °F 29.2 in WSW 10.1 mph 21 mph 97% 0.06 in
01:06 41.4 °F 41 °F 29.2 in WSW 12.8 mph 21 mph 97% 0.06 in
01:11 41.5 °F 41 °F 29.2 in WSW 17.4 mph 25.1 mph 97% 0.05 in
01:16 41.7 °F 42.8 °F 29.2 in West 17.4 mph 25.1 mph 98% 0.02 in
01:21 41.9 °F 42.8 °F 29.2 in Calm   19.5 mph 98% 0.02 in
01:26 41.7 °F 41 °F 29.2 in West 7.6 mph 16.8 mph 97% 0.01 in
01:32 41.7 °F 42.8 °F 29.2 in West 6 mph 12.3 mph 98% 0.01 in
01:37 41.7 °F 41 °F 29.2 in West 10.7 mph 10.7 mph 97% 0.01 in
01:42 41.9 °F 42.8 °F 29.2 in NNW 13.9 mph 25.1 mph 96% 0.01 in
01:47 41.7 °F 39.2 °F 29.2 in West 12.8 mph 25.1 mph 89% 0.01 in
01:52 41.7 °F 37.4 °F 29.2 in WSW 15.4 mph 25.5 mph 86% 0 in
01:57 41.5 °F 37.4 °F 29.3 in West 13 mph 25.5 mph 85% 0 in
02:02 41.5 °F 37.4 °F 29.3 in West 13.4 mph 20.4 mph 84% 0 in
02:07 41.9 °F 37.4 °F 29.3 in WNW 11 mph 23 mph 82% 0 in
02:12 41.9 °F 37.4 °F 29.3 in WNW 14.1 mph 23 mph 82% 0 in
02:17 41.9 °F 37.4 °F 29.3 in West 22.8 mph 25.1 mph 82% 0 in
02:22 41.9 °F 37.4 °F 29.3 in West 16.1 mph 31.8 mph 79% 0 in
02:27 41.9 °F 35.6 °F 29.3 in WSW 27.3 mph 31.8 mph 78% 0 in
02:32 41.9 °F 35.6 °F 29.3 in WNW 27.7 mph 27.7 mph 78% 0 in
02:37 42.3 °F 35.6 °F 29.3 in South 13.2 mph 27.7 mph 75% 0 in
02:42 42.3 °F 35.6 °F 29.3 in West 19.7 mph 27.7 mph 75% 0 in
02:47 42.3 °F 35.6 °F 29.3 in West 21.5 mph 29.3 mph 75% 0 in
02:52 42.1 °F 35.6 °F 29.3 in West 14.1 mph 29.3 mph 75% 0 in
02:57 42.1 °F 35.6 °F 29.3 in WSW 13 mph 27.1 mph 75% 0 in
03:03 32 °F 35.6 °F 29.3 in West 15.4 mph 27.1 mph 0% 0 in
03:08 32 °F 35.6 °F 29.3 in West 15.2 mph 26.8 mph 0% 0 in
03:13 32 °F 35.6 °F 29.3 in West 16.6 mph 27.1 mph 0% 0 in
03:18 41.4 °F 33.8 °F 29.3 in WSW 15.2 mph 27.3 mph 72% 0 in
03:23 41.2 °F 33.8 °F 29.3 in West 16.1 mph 27.3 mph 72% 0 in
03:28 41 °F 33.8 °F 29.3 in West 15.2 mph 24.2 mph 73% 0 in
03:33 41 °F 33.8 °F 29.3 in West 14.3 mph 24.2 mph 72% 0 in
03:38 40.6 °F 32 °F 29.3 in West 8.5 mph 23.5 mph 73% 0 in
03:43 40.6 °F 32 °F 29.3 in West 17.9 mph 25.7 mph 73% 0 in
03:48 40.6 °F 32 °F 29.3 in West 15.2 mph 25.7 mph 73% 0 in
03:53 40.5 °F 33.8 °F 29.3 in WSW 17.4 mph 23.7 mph 74% 0 in
03:58 40.3 °F 33.8 °F 29.3 in West 15.7 mph 23.5 mph 74% 0 in
04:03 40.5 °F 32 °F 29.3 in West 12.8 mph 23.7 mph 73% 0 in
04:08 40.3 °F 33.8 °F 29.3 in WSW 15.2 mph 23.7 mph 74% 0 in
04:14 39.9 °F 33.8 °F 29.3 in West 10.5 mph 21.9 mph 76% 0 in
04:20 39.9 °F 33.8 °F 29.3 in WSW 9.2 mph 18.1 mph 76% 0 in
04:21 39.9 °F 33.8 °F 29.3 in WSW 10.7 mph 18.1 mph 76% 0 in
04:22 39.9 °F 33.8 °F 29.3 in West 11 mph 18.1 mph 76% 0 in
04:23 39.9 °F 33.8 °F 29.3 in WSW 12.8 mph 19.2 mph 76% 0 in
04:26 40.1 °F 33.8 °F 29.4 in WSW 13 mph 19.2 mph 76% 0 in
04:28 40.1 °F 33.8 °F 29.4 in West 10.7 mph 19.2 mph 76% 0 in
04:31 40.3 °F 33.8 °F 29.4 in SSW 8.5 mph 19.2 mph 77% 0 in
04:36 40.3 °F 33.8 °F 29.4 in West 8.7 mph 19.7 mph 77% 0 in
04:41 40.3 °F 33.8 °F 29.4 in West 9.8 mph 19.7 mph 77% 0 in
04:46 40.1 °F 33.8 °F 29.4 in West 5.6 mph 17.7 mph 77% 0 in
04:51 40.1 °F 33.8 °F 29.4 in West 10.5 mph 15.7 mph 77% 0 in
04:52 40.1 °F 33.8 °F 29.4 in WSW 8.5 mph 14.8 mph 77% 0 in
04:56 40.1 °F 33.8 °F 29.4 in WSW 12.5 mph 15.2 mph 78% 0 in
05:00 40.3 °F 33.8 °F 29.4 in West 11.9 mph 17 mph 78% 0 in
05:05 40.3 °F 33.8 °F 29.4 in West 10.3 mph 17 mph 78% 0 in
05:10 40.1 °F 33.8 °F 29.4 in WSW 13.2 mph 17 mph 78% 0 in
05:15 39.9 °F 33.8 °F 29.4 in West 11.9 mph 17 mph 78% 0 in
05:20 39.7 °F 33.8 °F 29.4 in West 7.6 mph 12.3 mph 79% 0 in
05:26 39.6 °F 33.8 °F 29.4 in West 13 mph 13 mph 79% 0 in
05:31 39.7 °F 33.8 °F 29.4 in WSW 9.8 mph 15.9 mph 80% 0 in
05:36 40.3 °F 35.6 °F 29.4 in West 6.9 mph 15.9 mph 80% 0 in
05:41 40.5 °F 35.6 °F 29.4 in West 8.1 mph 14.1 mph 81% 0 in
05:44 40.5 °F 35.6 °F 29.4 in WSW 8.7 mph 14.1 mph 81% 0 in
05:49 40.6 °F 35.6 °F 29.4 in WSW 8.7 mph 14.3 mph 82% 0 in
05:54 40.8 °F 35.6 °F 29.4 in WSW 8.7 mph 17 mph 82% 0 in
05:59 41.2 °F 35.6 °F 29.4 in WSW 10.5 mph 17 mph 81% 0 in
06:04 41.2 °F 35.6 °F 29.4 in West 8.7 mph 17.4 mph 81% 0 in
06:08 41.2 °F 35.6 °F 29.4 in West 15.4 mph 17.7 mph 81% 0 in
06:09 41.7 °F 37.4 °F 29.4 in West 14.1 mph 17.7 mph 80% 0 in
06:10 41.7 °F 37.4 °F 29.4 in WSW 12.1 mph 17.7 mph 80% 0 in
06:14 41.9 °F 37.4 °F 29.4 in West 10.3 mph 17.7 mph 79% 0 in
06:19 41.9 °F 37.4 °F 29.4 in West 15.4 mph 15.4 mph 79% 0 in
06:20 41.9 °F 37.4 °F 29.4 in West 14.1 mph 15.4 mph 79% 0 in
06:24 42.1 °F 37.4 °F 29.4 in West 11 mph 15.4 mph 79% 0 in
06:25 42.1 °F 37.4 °F 29.4 in WSW 14.8 mph 15.4 mph 79% 0 in
06:30 41.9 °F 37.4 °F 29.4 in West 7.6 mph 14.8 mph 80% 0 in
06:35 41.9 °F 37.4 °F 29.4 in West 9.6 mph 12.5 mph 80% 0 in
06:40 41.9 °F 37.4 °F 29.4 in West 7.4 mph 10.5 mph 80% 0 in
06:45 41.4 °F 37.4 °F 29.4 in WSW 6 mph 10.5 mph 82% 0 in
06:50 41.5 °F 37.4 °F 29.4 in WSW 6 mph 10.5 mph 82% 0 in
06:55 41.5 °F 37.4 °F 29.4 in West 6.3 mph 8.5 mph 82% 0 in
07:00 41.4 °F 37.4 °F 29.3 in WSW 4.9 mph 7.6 mph 82% 0 in
07:05 41.4 °F 37.4 °F 29.3 in WSW 5.4 mph 7.2 mph 82% 0 in
07:10 41 °F 37.4 °F 29.3 in WSW 4.9 mph 7.2 mph 83% 0 in
07:15 40.6 °F 35.6 °F 29.4 in WSW 6.3 mph 6.3 mph 83% 0 in
07:21 40.3 °F 35.6 °F 29.4 in WSW 4.3 mph 6.3 mph 84% 0 in
07:26 40.3 °F 35.6 °F 29.3 in West 5.6 mph 7.2 mph 84% 0 in
07:31 40.5 °F 37.4 °F 29.3 in WSW 6 mph 7.2 mph 85% 0 in
07:36 40.6 °F 37.4 °F 29.3 in WSW 6 mph 7.2 mph 85% 0 in
07:41 41 °F 37.4 °F 29.4 in WSW 10.3 mph 14.3 mph 86% 0 in
07:46 41.5 °F 37.4 °F 29.4 in WSW 11 mph 16.1 mph 85% 0 in
07:56 42.1 °F 37.4 °F 29.4 in WSW 7.8 mph 13 mph 83% 0 in
08:01 42.3 °F 37.4 °F 29.4 in West 10.5 mph 11.4 mph 83% 0 in
08:06 42.3 °F 37.4 °F 29.4 in WSW 7.4 mph 10.5 mph 83% 0 in
08:11 42.3 °F 37.4 °F 29.4 in West 5.6 mph 10.5 mph 83% 0 in
08:13 42.3 °F 37.4 °F 29.4 in WSW 8.1 mph 12.1 mph 83% 0 in
08:16 41.9 °F 37.4 °F 29.4 in West 10.5 mph 16.6 mph 82% 0 in
08:17 41.9 °F 37.4 °F 29.4 in West 10.5 mph 16.6 mph 82% 0 in
08:21 42.3 °F 37.4 °F 29.4 in WSW 8.5 mph 16.6 mph 82% 0 in
08:26 42.1 °F 37.4 °F 29.4 in SW 5.6 mph 10.3 mph 82% 0 in
08:31 42.1 °F 37.4 °F 29.4 in WSW 7.6 mph 9.2 mph 82% 0 in
08:36 42.1 °F 37.4 °F 29.4 in WSW 17.4 mph 17.4 mph 82% 0 in
08:42 42.1 °F 37.4 °F 29.4 in West 3.8 mph 17.4 mph 82% 0 in
08:47 41.4 °F 37.4 °F 29.4 in WSW 10.7 mph 20.4 mph 86% 0 in
08:52 41.2 °F 37.4 °F 29.4 in WSW 6.3 mph 20.4 mph 86% 0.01 in
08:55 41 °F 37.4 °F 29.4 in WSW 10.1 mph 20.4 mph 86% 0.01 in
09:01 40.8 °F 37.4 °F 29.4 in WSW 8.1 mph 10.1 mph 87% 0.01 in
09:02 40.8 °F 37.4 °F 29.4 in WSW 8.1 mph 10.1 mph 87% 0.01 in
09:07 40.8 °F 37.4 °F 29.4 in WSW 8.5 mph 10.3 mph 87% 0.01 in
09:12 32 °F 37.4 °F 29.4 in SW 11 mph 11 mph 0% 0.01 in
09:17 40.5 °F 37.4 °F 29.4 in SW 9.8 mph 15.2 mph 91% 0.01 in
09:22 40.5 °F 37.4 °F 29.4 in SSW 7.6 mph 15.2 mph 91% 0.01 in
09:27 40.6 °F 37.4 °F 29.4 in SW 7.2 mph 12.8 mph 92% 0.01 in
09:32 40.5 °F 37.4 °F 29.4 in SSW 7.6 mph 12.8 mph 92% 0.01 in
09:37 40.5 °F 37.4 °F 29.4 in SW 9.6 mph 11 mph 92% 0.01 in
09:39 40.5 °F 37.4 °F 29.4 in WSW 6.5 mph 11 mph 92% 0.01 in
09:42 40.5 °F 37.4 °F 29.4 in SSW 11 mph 11 mph 92% 0.01 in
09:47 40.5 °F 37.4 °F 29.4 in SSW 17.4 mph 17.4 mph 92% 0 in
09:48 40.5 °F 37.4 °F 29.4 in SSW 12.5 mph 17.4 mph 92% 0 in
09:52 40.5 °F 37.4 °F 29.4 in WSW 15.4 mph 17.4 mph 92% 0 in
09:57 40.3 °F 39.2 °F 29.4 in WSW 7.8 mph 15.4 mph 93% 0 in
10:02 40.1 °F 39.2 °F 29.4 in SW 8.1 mph 17.4 mph 93% 0 in
10:07 40.1 °F 39.2 °F 29.4 in SW 6.5 mph 17.4 mph 93% 0 in
10:12 39.7 °F 37.4 °F 29.4 in WSW 7.4 mph 15.2 mph 93% 0 in
10:17 39.6 °F 37.4 °F 29.4 in WSW 8.1 mph 13 mph 93% 0 in
10:19 39.6 °F 37.4 °F 29.4 in SSW 7.8 mph 13 mph 93% 0 in
10:22 39.6 °F 37.4 °F 29.4 in SSW 7.6 mph 11.2 mph 93% 0 in
10:27 39.4 °F 37.4 °F 29.4 in WSW 7.4 mph 9.6 mph 93% 0 in
10:32 39.4 °F 37.4 °F 29.4 in SW 6.7 mph 10.7 mph 93% 0 in
10:37 39.4 °F 37.4 °F 29.4 in SSW 6.5 mph 10.7 mph 93% 0 in
10:42 39.4 °F 37.4 °F 29.4 in WSW 6.5 mph 10.5 mph 93% 0 in
10:47 39.4 °F 37.4 °F 29.4 in SW 7.2 mph 10.5 mph 95% 0 in
10:52 39.4 °F 37.4 °F 29.4 in SW 8.7 mph 12.1 mph 95% 0 in
10:57 39.4 °F 37.4 °F 29.4 in WSW 7.8 mph 12.1 mph 95% 0 in
10:59 39.7 °F 39.2 °F 29.4 in SSW 8.5 mph 12.1 mph 96% 0 in
11:02 39.7 °F 39.2 °F 29.4 in WSW 12.5 mph 13.9 mph 96% 0 in
11:07 39.7 °F 39.2 °F 29.4 in WSW 5.8 mph 13.9 mph 96% 0 in
11:12 39.7 °F 39.2 °F 29.4 in SW 8.1 mph 12.1 mph 96% 0 in
11:17 40.1 °F 39.2 °F 29.4 in SW 7.4 mph 11.2 mph 96% 0 in
11:22 39.9 °F 39.2 °F 29.4 in SSW 9.2 mph 10.1 mph 96% 0 in
11:24 39.9 °F 39.2 °F 29.4 in SSW 6.5 mph 9.8 mph 96% 0 in
11:29 39.9 °F 39.2 °F 29.4 in WSW 8.7 mph 11.4 mph 96% 0 in
11:34 39.9 °F 39.2 °F 29.4 in WSW 12.3 mph 12.3 mph 96% 0 in
11:38 39.9 °F 39.2 °F 29.4 in SSW 8.7 mph 13 mph 96% 0 in
11:40 39.9 °F 39.2 °F 29.4 in WSW 9.2 mph 13 mph 96% 0 in
11:45 39.9 °F 39.2 °F 29.4 in SW 10.3 mph 13 mph 96% 0 in
11:50 39.9 °F 39.2 °F 29.4 in SSW 10.1 mph 15.4 mph 96% 0 in
11:55 40.3 °F 39.2 °F 29.4 in SSW 6.9 mph 15.4 mph 95% 0 in
12:01 40.5 °F 39.2 °F 29.4 in WSW 8.5 mph 13.6 mph 95% 0 in
12:03 40.5 °F 39.2 °F 29.4 in SW 11 mph 15.4 mph 95% 0 in
12:04 40.5 °F 39.2 °F 29.4 in SW 7.6 mph 15.4 mph 95% 0 in
12:08 40.5 °F 39.2 °F 29.4 in SSW 8.5 mph 15.4 mph 95% 0 in
12:13 40.5 °F 39.2 °F 29.4 in SSW 10.3 mph 12.5 mph 95% 0 in
12:18 40.5 °F 39.2 °F 29.4 in SW 9.4 mph 12.5 mph 95% 0 in
12:23 40.5 °F 39.2 °F 29.4 in WSW 11.2 mph 13.6 mph 95% 0 in
12:26 40.5 °F 39.2 °F 29.3 in SW 7.4 mph 13.6 mph 95% 0 in
12:31 40.5 °F 39.2 °F 29.3 in WSW 6.5 mph 13.6 mph 95% 0 in
12:36 40.3 °F 39.2 °F 29.3 in WSW 8.5 mph 11 mph 95% 0 in
12:40 40.3 °F 39.2 °F 29.3 in West 6 mph 10.5 mph 95% 0 in
12:43 40.3 °F 39.2 °F 29.3 in SSW 4.9 mph 10.5 mph 95% 0 in
12:48 40.3 °F 39.2 °F 29.3 in SW 7.6 mph 10.5 mph 95% 0 in
12:53 40.3 °F 39.2 °F 29.3 in WSW 8.1 mph 11 mph 95% 0 in
12:58 40.5 °F 39.2 °F 29.3 in SW 8.1 mph 15.4 mph 95% 0 in
13:03 40.6 °F 39.2 °F 29.3 in SW 7.8 mph 15.4 mph 95% 0 in
13:08 40.6 °F 39.2 °F 29.3 in SW 10.1 mph 14.5 mph 95% 0 in
13:09 40.6 °F 39.2 °F 29.3 in SSW 8.1 mph 14.5 mph 95% 0 in
13:14 40.6 °F 39.2 °F 29.3 in SSW 8.5 mph 12.5 mph 95% 0 in
13:19 40.6 °F 39.2 °F 29.3 in WSW 9.6 mph 12.5 mph 95% 0 in
13:24 40.6 °F 39.2 °F 29.3 in WSW 7.2 mph 12.1 mph 95% 0 in
13:29 32 °F 39.2 °F 29.3 in SW 8.5 mph 11.2 mph 0% 0 in
13:34 32 °F 39.2 °F 29.3 in WSW 8.1 mph 12.8 mph 0% 0 in
13:39 32 °F 39.2 °F 0 in SW 6.5 mph 6.5 mph 0% 0 in
13:44 40.8 °F 39.2 °F 29.3 in WSW 14.8 mph 17.2 mph 94% 0 in
13:49 41 °F 39.2 °F 29.3 in WSW 11.9 mph 17.2 mph 94% 0 in
13:54 41 °F 41 °F 29.3 in WSW 8.9 mph 15.9 mph 95% 0 in
13:59 41 °F 41 °F 29.3 in SSW 10.3 mph 15.9 mph 95% 0 in
14:03 41.2 °F 41 °F 29.3 in WSW 10.5 mph 13.2 mph 95% 0 in
14:04 41.2 °F 41 °F 29.3 in WSW 12.5 mph 14.3 mph 95% 0 in
14:09 41.2 °F 41 °F 29.3 in WSW 14.8 mph 18.1 mph 95% 0 in
14:14 41.2 °F 41 °F 29.3 in SW 13 mph 19 mph 95% 0.01 in
14:19 41.2 °F 41 °F 29.3 in SW 8.7 mph 19 mph 95% 0.01 in
14:24 41.2 °F 41 °F 29.3 in SW 6.5 mph 16.1 mph 95% 0.01 in
14:29 41.2 °F 41 °F 29.3 in SSW 15.4 mph 15.4 mph 95% 0.01 in
14:30 41.2 °F 41 °F 29.3 in SW 10.1 mph 15.4 mph 95% 0.01 in
14:35 41 °F 41 °F 29.3 in WSW 10.5 mph 17.2 mph 96% 0.01 in
14:40 41 °F 41 °F 29.3 in WSW 8.1 mph 17.2 mph 96% 0.02 in
14:45 41 °F 41 °F 29.3 in SW 9.6 mph 14.8 mph 96% 0.02 in
14:50 41 °F 41 °F 29.3 in SW 10.1 mph 14.1 mph 96% 0.02 in
14:52 41 °F 41 °F 29.3 in SSW 5.8 mph 14.1 mph 96% 0.02 in
14:57 40.6 °F 39.2 °F 29.3 in SW 6 mph 14.1 mph 97% 0.02 in
15:02 40.6 °F 39.2 °F 29.3 in SSW 7.8 mph 13 mph 97% 0.02 in
15:07 40.6 °F 39.2 °F 29.3 in SW 7.8 mph 10.5 mph 97% 0.02 in
15:12 40.6 °F 39.2 °F 29.3 in SW 5.4 mph 10.3 mph 97% 0.02 in
15:17 40.6 °F 39.2 °F 29.3 in SSW 6.5 mph 10.3 mph 97% 0.01 in
15:22 40.6 °F 41 °F 29.3 in SW 7.6 mph 10.5 mph 98% 0.01 in
15:27 40.6 °F 41 °F 29.3 in SW 8.1 mph 12.5 mph 98% 0.01 in
15:32 40.6 °F 41 °F 29.3 in SSW 10.5 mph 13 mph 98% 0.02 in
15:37 40.6 °F 41 °F 29.3 in SSW 12.1 mph 13 mph 98% 0.05 in
15:43 40.6 °F 41 °F 29.2 in SW 7.6 mph 13 mph 98% 0.03 in
15:48 40.6 °F 41 °F 29.2 in WSW 8.7 mph 12.3 mph 98% 0.03 in
15:53 40.3 °F 41 °F 29.2 in SW 9.8 mph 12.1 mph 98% 0.03 in
15:58 40.3 °F 41 °F 29.2 in SSW 8.5 mph 12.8 mph 98% 0.03 in
16:03 40.3 °F 41 °F 29.2 in SW 11.9 mph 12.8 mph 98% 0.03 in
16:04 39.9 °F 39.2 °F 29.2 in SW 11 mph 13.2 mph 98% 0.03 in
16:05 39.9 °F 39.2 °F 29.2 in SSW 8.5 mph 13.2 mph 98% 0.03 in
16:10 39.7 °F 39.2 °F 29.3 in SSW 12.1 mph 14.8 mph 98% 0.03 in
16:15 39.6 °F 39.2 °F 29.3 in WSW 12.3 mph 15.4 mph 98% 0.03 in
16:19 39.6 °F 39.2 °F 29.3 in SSW 7.8 mph 19.5 mph 98% 0.03 in
16:21 39.6 °F 39.2 °F 29.3 in South 8.5 mph 19.5 mph 98% 0.03 in
16:26 39.2 °F 39.2 °F 29.3 in SW 7.4 mph 13.2 mph 98% 0.03 in
16:31 39.2 °F 39.2 °F 29.3 in SW 7.6 mph 12.1 mph 98% 0.02 in
16:36 39.2 °F 39.2 °F 29.3 in SW 9.8 mph 14.8 mph 98% 0.01 in
16:41 39.2 °F 39.2 °F 29.3 in WSW 10.1 mph 14.8 mph 98% 0 in
16:46 39.2 °F 39.2 °F 29.3 in SSW 10.5 mph 12.3 mph 98% 0 in
16:51 39.2 °F 39.2 °F 29.3 in SW 8.7 mph 13.4 mph 98% 0 in
16:56 39.2 °F 39.2 °F 29.2 in SSW 7.8 mph 13.4 mph 98% 0 in
17:01 39.2 °F 39.2 °F 29.2 in SW 6.5 mph 13.2 mph 98% 0 in
17:06 39.2 °F 39.2 °F 29.2 in SSW 10.3 mph 15.4 mph 98% 0 in
17:09 39.2 °F 39.2 °F 29.2 in WSW 7.8 mph 15.4 mph 98% 0 in
17:12 39.2 °F 39.2 °F 29.2 in SW 12.3 mph 15.4 mph 98% 0 in
17:17 39.2 °F 39.2 °F 29.2 in WSW 11 mph 14.1 mph 98% 0.01 in
17:22 39.4 °F 39.2 °F 29.2 in WSW 12.8 mph 15.2 mph 98% 0.04 in
17:27 38.8 °F 39.2 °F 29.3 in West 10.7 mph 15.4 mph 98% 0.06 in
17:32 38.3 °F 39.2 °F 29.3 in WSW 10.5 mph 17.4 mph 98% 0.09 in
17:33 38.1 °F 37.4 °F 29.3 in West 10.3 mph 17.4 mph 98% 0.1 in
17:37 37.9 °F 37.4 °F 29.3 in WSW 8.1 mph 17.4 mph 98% 0.11 in
17:42 37.9 °F 37.4 °F 29.2 in SSW 5.6 mph 14.8 mph 98% 0.15 in
17:47 37.4 °F 37.4 °F 29.2 in SW 4 mph 12.5 mph 98% 0.16 in
17:52 37.4 °F 37.4 °F 29.2 in South 4.7 mph 8.7 mph 98% 0.16 in
17:57 37.2 °F 37.4 °F 29.2 in SSW 3.1 mph 7.6 mph 98% 0.16 in
18:00 37.2 °F 37.4 °F 29.2 in SSW 4.3 mph 7.2 mph 98% 0.16 in
18:05 37 °F 37.4 °F 29.2 in South 4.9 mph 7.2 mph 98% 0.16 in
18:10 36.9 °F 37.4 °F 29.2 in SSW 3.8 mph 7.4 mph 98% 0.16 in
18:15 36.7 °F 37.4 °F 29.2 in SSW 3.8 mph 7.4 mph 98% 0.15 in
18:20 36.7 °F 37.4 °F 29.2 in SSW 6 mph 7.8 mph 98% 0.13 in
18:22 36.7 °F 37.4 °F 29.2 in SW 7.8 mph 7.8 mph 98% 0.12 in
18:27 36.7 °F 37.4 °F 29.2 in Calm   7.8 mph 98% 0.1 in
18:28 36.7 °F 37.4 °F 29.2 in Calm   7.8 mph 98% 0.1 in
18:32 36.7 °F 37.4 °F 29.2 in SSW 7.2 mph 7.4 mph 98% 0.07 in
18:37 36.7 °F 37.4 °F 29.2 in SSW 6.5 mph 8.7 mph 98% 0.05 in
18:38 36.7 °F 37.4 °F 29.2 in SSW 6.3 mph 8.7 mph 98% 0.05 in
18:43 36.7 °F 37.4 °F 29.2 in SSW 3.6 mph 8.7 mph 98% 0.01 in
18:48 36.5 °F 37.4 °F 29.2 in SSW 3.8 mph 8.7 mph 98% 0 in
18:53 36.5 °F 37.4 °F 29.2 in South 5.6 mph 8.7 mph 98% 0.01 in
18:58 36.5 °F 37.4 °F 29.2 in SSW 5.8 mph 8.7 mph 98% 0.01 in
19:03 36.5 °F 37.4 °F 29.2 in SSW 4.3 mph 8.7 mph 98% 0.01 in
19:08 36.7 °F 37.4 °F 29.2 in South 4.9 mph 8.7 mph 98% 0.01 in
19:13 36.7 °F 37.4 °F 29.2 in South 7.4 mph 8.7 mph 98% 0.01 in
19:14 36.7 °F 37.4 °F 29.2 in SSW 7.8 mph 8.7 mph 98% 0.01 in
19:18 36.9 °F 37.4 °F 29.2 in SSW 6.3 mph 10.1 mph 98% 0.01 in
19:20 36.9 °F 37.4 °F 29.2 in SW 7.8 mph 10.1 mph 98% 0.01 in
19:25 37 °F 37.4 °F 29.2 in SSW 6.3 mph 10.1 mph 98% 0.01 in
19:26 37 °F 37.4 °F 29.2 in SSW 5.4 mph 8.7 mph 98% 0.01 in
19:31 37.2 °F 37.4 °F 29.2 in SW 5.8 mph 7.8 mph 98% 0.01 in
19:36 37.2 °F 37.4 °F 29.2 in WSW 6.7 mph 7.8 mph 98% 0.01 in
19:41 37.4 °F 37.4 °F 29.2 in SW 4.7 mph 10.1 mph 98% 0.01 in
19:46 37.4 °F 37.4 °F 29.2 in SW 7.4 mph 10.7 mph 98% 0.01 in
19:51 37.4 °F 37.4 °F 29.2 in SSW 5.8 mph 10.7 mph 98% 0.01 in
19:53 37.4 °F 37.4 °F 29.2 in SSW 6.5 mph 10.7 mph 98% 0 in
19:58 37.2 °F 37.4 °F 29.2 in SW 7.4 mph 8.5 mph 98% 0 in
20:03 37.2 °F 37.4 °F 29.2 in SW 4 mph 8.7 mph 98% 0 in
20:08 37.2 °F 37.4 °F 29.2 in SW 5.6 mph 8.7 mph 98% 0 in
20:13 37.2 °F 37.4 °F 29.2 in SSW 6.3 mph 7.8 mph 98% 0 in
20:18 37.2 °F 37.4 °F 29.2 in South 3.1 mph 8.5 mph 98% 0 in
20:19 37.2 °F 37.4 °F 29.2 in SW 5.4 mph 8.5 mph 98% 0 in
20:23 37.2 °F 37.4 °F 29.2 in SSW 4 mph 8.5 mph 98% 0 in
20:25 37 °F 37.4 °F 29.2 in SSW 4.9 mph 7.8 mph 98% 0 in
20:28 37 °F 37.4 °F 29.2 in SSW 7.8 mph 8.5 mph 98% 0 in
20:33 37 °F 37.4 °F 29.2 in SSW 9.8 mph 13 mph 98% 0 in
20:38 37 °F 37.4 °F 29.2 in SSW 13 mph 13 mph 98% 0 in
20:43 37 °F 37.4 °F 29.2 in WSW 7.4 mph 13 mph 98% 0 in
20:48 37 °F 37.4 °F 29.2 in SSW 6 mph 13 mph 98% 0 in
20:53 36.9 °F 37.4 °F 29.2 in SW 6.3 mph 9.6 mph 98% 0 in
20:58 36.9 °F 37.4 °F 29.2 in SW 6.5 mph 8.7 mph 98% 0 in
21:03 36.7 °F 37.4 °F 29.2 in SSW 3.1 mph 7.8 mph 98% 0 in
21:08 36.5 °F 37.4 °F 29.2 in SW 4 mph 8.7 mph 98% 0 in
21:13 36.5 °F 37.4 °F 29.2 in Calm   8.7 mph 98% 0 in
21:18 36.3 °F 37.4 °F 29.2 in SW 1.3 mph 6.3 mph 98% 0 in
21:23 36.1 °F 37.4 °F 29.2 in SSW 2.5 mph 6 mph 98% 0 in
21:28 36.1 °F 37.4 °F 29.2 in Calm   4.9 mph 98% 0 in
21:34 36 °F 35.6 °F 29.2 in Calm   4 mph 98% 0 in
21:39 35.8 °F 35.6 °F 29.2 in Calm   4 mph 98% 0 in
21:44 35.8 °F 35.6 °F 29.2 in Calm   3.6 mph 98% 0 in
21:49 35.6 °F 35.6 °F 29.2 in SW 3.1 mph 3.6 mph 98% 0 in
21:54 35.6 °F 35.6 °F 29.2 in Calm   3.1 mph 98% 0 in
21:59 35.4 °F 35.6 °F 29.2 in Calm   2.9 mph 98% 0 in
22:04 35.4 °F 35.6 °F 29.2 in Calm   2.7 mph 98% 0 in
22:09 35.4 °F 35.6 °F 29.2 in WSW 2.9 mph 4 mph 98% 0 in
22:10 35.4 °F 35.6 °F 29.2 in WSW 2.7 mph 4 mph 98% 0 in
22:15 35.2 °F 35.6 °F 29.2 in Calm   4 mph 98% 0 in
22:20 35.1 °F 35.6 °F 29.2 in Calm   3.8 mph 98% 0 in
22:22 34.9 °F 35.6 °F 29.2 in Calm   4 mph 98% 0 in
22:25 34.7 °F 35.6 °F 29.2 in West 4 mph 4 mph 98% 0 in
22:30 34.5 °F 33.8 °F 29.2 in Calm   4.3 mph 98% 0 in
22:35 34.3 °F 33.8 °F 29.2 in Calm   4.3 mph 98% 0 in
22:40 34 °F 33.8 °F 29.2 in Calm     98% 0 in
22:45 34 °F 33.8 °F 29.2 in Calm     98% 0 in
22:48 34 °F 33.8 °F 29.2 in Calm     98% 0 in
22:53 34 °F 33.8 °F 29.2 in Calm     98% 0 in
22:58 34 °F 33.8 °F 29.2 in Calm     98% 0 in
23:03 34 °F 33.8 °F 29.2 in South 0.9 mph 1.1 mph 98% 0 in
23:09 33.8 °F 33.8 °F 29.2 in Calm   3.1 mph 98% 0 in
23:14 33.8 °F 33.8 °F 29.2 in SW 2 mph 3.1 mph 98% 0 in
23:19 34 °F 33.8 °F 29.2 in Calm   3.1 mph 98% 0 in
23:24 34 °F 33.8 °F 29.2 in Calm     98% 0 in
23:29 34 °F 33.8 °F 29.2 in Calm     98% 0 in
23:34 33.8 °F 33.8 °F 29.2 in Calm   1.1 mph 98% 0 in
23:39 34 °F 33.8 °F 29.2 in Calm   1.1 mph 98% 0 in
23:44 34 °F 33.8 °F 29.2 in Calm     98% 0 in
23:49 34 °F 33.8 °F 29.2 in Calm     98% 0 in
23:54 34 °F 33.8 °F 29.2 in SSW 2.2 mph 2.7 mph 98% 0 in
23:59 34 °F 33.8 °F 29.2 in SSW 2 mph 3.1 mph 98% 0 in
Données Historique de Météo Turbie

Mise a jour : 22/05/2018 21:48:14
Généré par Cumulus 1.9.4 (1099)